sensor_id;sensor_type;location;lat;lon;timestamp;pressure;altitude;pressure_sealevel;temperature;humidity
54503;BME280;40411;50.090;21.954;2023-07-22T00:01:25;13606.00;;;17.41;100.00
54503;BME280;40411;50.090;21.954;2023-07-22T00:03:51;13938.59;;;17.38;100.00
54503;BME280;40411;50.090;21.954;2023-07-22T00:06:17;13938.75;;;17.38;100.00
54503;BME280;40411;50.090;21.954;2023-07-22T00:08:43;13939.47;;;17.41;100.00
54503;BME280;40411;50.090;21.954;2023-07-22T00:11:08;13939.91;;;17.42;100.00
54503;BME280;40411;50.090;21.954;2023-07-22T00:13:35;13938.03;;;17.36;100.00
54503;BME280;40411;50.090;21.954;2023-07-22T00:16:01;14270.06;;;17.31;100.00
54503;BME280;40411;50.090;21.954;2023-07-22T00:18:30;14269.06;;;17.27;100.00
54503;BME280;40411;50.090;21.954;2023-07-22T00:20:56;14270.66;;;17.33;100.00
54503;BME280;40411;50.090;21.954;2023-07-22T00:23:22;14269.06;;;17.27;100.00
54503;BME280;40411;50.090;21.954;2023-07-22T00:25:48;14269.06;;;17.27;100.00
54503;BME280;40411;50.090;21.954;2023-07-22T00:28:15;13937.63;;;17.34;100.00
54503;BME280;40411;50.090;21.954;2023-07-22T00:30:41;13936.75;;;17.31;100.00
54503;BME280;40411;50.090;21.954;2023-07-22T00:33:08;13605.72;;;17.40;100.00
54503;BME280;40411;50.090;21.954;2023-07-22T00:35:34;12944.63;;;17.62;100.00
54503;BME280;40411;50.090;21.954;2023-07-22T00:38:00;12946.78;;;17.70;100.00
54503;BME280;40411;50.090;21.954;2023-07-22T00:40:27;12945.69;;;17.66;100.00
54503;BME280;40411;50.090;21.954;2023-07-22T00:42:53;12613.78;;;17.72;100.00
54503;BME280;40411;50.090;21.954;2023-07-22T00:45:18;12613.09;;;17.70;100.00
54503;BME280;40411;50.090;21.954;2023-07-22T00:47:45;12611.66;;;17.64;100.00
54503;BME280;40411;50.090;21.954;2023-07-22T00:50:10;12612.31;;;17.67;100.00
54503;BME280;40411;50.090;21.954;2023-07-22T00:52:39;11952.31;;;17.95;100.00
54503;BME280;40411;50.090;21.954;2023-07-22T00:55:05;12284.13;;;17.88;100.00
54503;BME280;40411;50.090;21.954;2023-07-22T00:57:33;12284.25;;;17.88;100.00
54503;BME280;40411;50.090;21.954;2023-07-22T00:59:59;12282.81;;;17.82;100.00
54503;BME280;40411;50.090;21.954;2023-07-22T01:02:25;12281.66;;;17.78;100.00
54503;BME280;40411;50.090;21.954;2023-07-22T01:04:51;12613.78;;;17.72;100.00
54503;BME280;40411;50.090;21.954;2023-07-22T01:07:20;12613.63;;;17.72;100.00
54503;BME280;40411;50.090;21.954;2023-07-22T01:09:46;12613.25;;;17.70;100.00
54503;BME280;40411;50.090;21.954;2023-07-22T01:12:12;12612.19;;;17.66;100.00
54503;BME280;40411;50.090;21.954;2023-07-22T01:14:41;12612.84;;;17.69;100.00
54503;BME280;40411;50.090;21.954;2023-07-22T01:17:09;12946.38;;;17.69;100.00
54503;BME280;40411;50.090;21.954;2023-07-22T01:19:35;13276.25;;;17.55;100.00
54503;BME280;40411;50.090;21.954;2023-07-22T01:22:04;13274.19;;;17.47;100.00
54503;BME280;40411;50.090;21.954;2023-07-22T01:24:32;13274.47;;;17.48;100.00
54503;BME280;40411;50.090;21.954;2023-07-22T01:26:58;12941.53;;;17.50;100.00
54503;BME280;40411;50.090;21.954;2023-07-22T01:29:25;12611.41;;;17.63;100.00
54503;BME280;40411;50.090;21.954;2023-07-22T01:31:53;12611.41;;;17.63;100.00
54503;BME280;40411;50.090;21.954;2023-07-22T01:34:19;12941.94;;;17.52;100.00
54503;BME280;40411;50.090;21.954;2023-07-22T01:36:46;13273.63;;;17.45;100.00
54503;BME280;40411;50.090;21.954;2023-07-22T01:39:16;13275.69;;;17.53;100.00
54503;BME280;40411;50.090;21.954;2023-07-22T01:41:44;12945.31;;;17.64;100.00
54503;BME280;40411;50.090;21.954;2023-07-22T01:44:10;12945.31;;;17.64;100.00
54503;BME280;40411;50.090;21.954;2023-07-22T01:46:37;13276.94;;;17.57;100.00
54503;BME280;40411;50.090;21.954;2023-07-22T01:49:10;13276.53;;;17.56;100.00
54503;BME280;40411;50.090;21.954;2023-07-22T01:51:36;13276.53;;;17.56;100.00
54503;BME280;40411;50.090;21.954;2023-07-22T01:54:08;13936.75;;;17.31;100.00
54503;BME280;40411;50.090;21.954;2023-07-22T01:56:36;13937.34;;;17.33;100.00
54503;BME280;40411;50.090;21.954;2023-07-22T01:59:01;13936.47;;;17.30;100.00
54503;BME280;40411;50.090;21.954;2023-07-22T02:01:27;14266.75;;;17.19;100.00
54503;BME280;40411;50.090;21.954;2023-07-22T02:03:54;14598.53;;;17.13;100.00
54503;BME280;40411;50.090;21.954;2023-07-22T02:06:21;14597.19;;;17.09;100.00
54503;BME280;40411;50.090;21.954;2023-07-22T02:08:47;14267.31;;;17.21;100.00
54503;BME280;40411;50.090;21.954;2023-07-22T02:11:12;14267.03;;;17.20;100.00
54503;BME280;40411;50.090;21.954;2023-07-22T02:13:38;14270.06;;;17.31;100.00
54503;BME280;40411;50.090;21.954;2023-07-22T02:16:04;14270.06;;;17.31;100.00
54503;BME280;40411;50.090;21.954;2023-07-22T02:18:30;13938.47;;;17.37;100.00
54503;BME280;40411;50.090;21.954;2023-07-22T02:20:56;14270.50;;;17.32;100.00
54503;BME280;40411;50.090;21.954;2023-07-22T02:23:22;14269.34;;;17.28;100.00
54503;BME280;40411;50.090;21.954;2023-07-22T02:25:53;14271.09;;;17.34;100.00
54503;BME280;40411;50.090;21.954;2023-07-22T02:28:20;14271.66;;;17.36;100.00
54503;BME280;40411;50.090;21.954;2023-07-22T02:30:48;14271.38;;;17.35;100.00
54503;BME280;40411;50.090;21.954;2023-07-22T02:33:14;13939.31;;;17.40;100.00
54503;BME280;40411;50.090;21.954;2023-07-22T02:35:41;13939.31;;;17.40;100.00
54503;BME280;40411;50.090;21.954;2023-07-22T02:38:07;13940.75;;;17.46;100.00
54503;BME280;40411;50.090;21.954;2023-07-22T02:40:37;14271.97;;;17.37;100.00
54503;BME280;40411;50.090;21.954;2023-07-22T02:43:03;13940.47;;;17.45;100.00
54503;BME280;40411;50.090;21.954;2023-07-22T02:45:31;13940.47;;;17.45;100.00
54503;BME280;40411;50.090;21.954;2023-07-22T02:47:56;13941.31;;;17.48;100.00
54503;BME280;40411;50.090;21.954;2023-07-22T02:50:22;13939.31;;;17.40;100.00
54503;BME280;40411;50.090;21.954;2023-07-22T02:52:48;13940.47;;;17.45;100.00
54503;BME280;40411;50.090;21.954;2023-07-22T02:55:15;13940.03;;;17.43;100.00
54503;BME280;40411;50.090;21.954;2023-07-22T02:57:45;13939.47;;;17.41;100.00
54503;BME280;40411;50.090;21.954;2023-07-22T03:00:16;14272.09;;;17.38;100.00
54503;BME280;40411;50.090;21.954;2023-07-22T03:02:55;13940.31;;;17.44;100.00
54503;BME280;40411;50.090;21.954;2023-07-22T03:05:31;13939.47;;;17.41;100.00
54503;BME280;40411;50.090;21.954;2023-07-22T03:07:58;13941.47;;;17.48;100.00
54503;BME280;40411;50.090;21.954;2023-07-22T03:10:24;13611.28;;;17.60;100.00
54503;BME280;40411;50.090;21.954;2023-07-22T03:12:55;13279.41;;;17.67;100.00
54503;BME280;40411;50.090;21.954;2023-07-22T03:15:25;13280.50;;;17.71;100.00
54503;BME280;40411;50.090;21.954;2023-07-22T03:17:54;12948.25;;;17.76;100.00
54503;BME280;40411;50.090;21.954;2023-07-22T03:20:27;12618.25;;;17.90;100.00
54503;BME280;40411;50.090;21.954;2023-07-22T03:22:53;12287.72;;;18.02;100.00
54503;BME280;40411;50.090;21.954;2023-07-22T03:25:20;11624.28;;;18.18;100.00
54503;BME280;40411;50.090;21.954;2023-07-22T03:27:46;11957.25;;;18.15;100.00
54503;BME280;40411;50.090;21.954;2023-07-22T03:30:13;11624.41;;;18.18;100.00
54503;BME280;40411;50.090;21.954;2023-07-22T03:32:46;11625.53;;;18.23;100.00
54503;BME280;40411;50.090;21.954;2023-07-22T03:35:19;11293.28;;;18.29;100.00
54503;BME280;40411;50.090;21.954;2023-07-22T03:37:44;11291.81;;;18.23;100.00
54503;BME280;40411;50.090;21.954;2023-07-22T03:40:11;11622.94;;;18.12;100.00
54503;BME280;40411;50.090;21.954;2023-07-22T03:42:47;11292.19;;;18.24;100.00
54503;BME280;40411;50.090;21.954;2023-07-22T03:45:13;11954.97;;;18.05;100.00
54503;BME280;40411;50.090;21.954;2023-07-22T03:47:39;11622.81;;;18.12;100.00
54503;BME280;40411;50.090;21.954;2023-07-22T03:50:07;11622.19;;;18.09;100.00
54503;BME280;40411;50.090;21.954;2023-07-22T03:52:32;11953.31;;;17.99;100.00
54503;BME280;40411;50.090;21.954;2023-07-22T03:54:58;11951.28;;;17.91;100.00
54503;BME280;40411;50.090;21.954;2023-07-22T03:57:28;11952.31;;;17.95;100.00
54503;BME280;40411;50.090;21.954;2023-07-22T03:59:54;11619.72;;;17.99;100.00
54503;BME280;40411;50.090;21.954;2023-07-22T04:02:20;11288.44;;;18.08;100.00
54503;BME280;40411;50.090;21.954;2023-07-22T04:04:46;10958.50;;;18.24;100.00
54503;BME280;40411;50.090;21.954;2023-07-22T04:07:12;10626.25;;;18.30;100.00
54503;BME280;40411;50.090;21.954;2023-07-22T04:09:38;10294.16;;;18.38;100.00
54503;BME280;40411;50.090;21.954;2023-07-22T04:12:04;9964.47;;;18.56;100.00
54503;BME280;40411;50.090;21.954;2023-07-22T04:14:30;9632.25;;;18.63;100.00
54503;BME280;40411;50.090;21.954;2023-07-22T04:16:58;9301.66;;;18.79;100.00
54503;BME280;40411;50.090;21.954;2023-07-22T04:19:24;9301.97;;;18.80;100.00
54503;BME280;40411;50.090;21.954;2023-07-22T04:21:50;9303.75;;;18.89;100.00
54503;BME280;40411;50.090;21.954;2023-07-22T04:24:16;9303.66;;;18.88;100.00
54503;BME280;40411;50.090;21.954;2023-07-22T04:26:42;9303.25;;;18.86;100.00
54503;BME280;40411;50.090;21.954;2023-07-22T04:29:09;9964.91;;;18.58;100.00
54503;BME280;40411;50.090;21.954;2023-07-22T04:31:38;9302.09;;;18.81;100.00
54503;BME280;40411;50.090;21.954;2023-07-22T04:34:05;9634.28;;;18.73;100.00
54503;BME280;40411;50.090;21.954;2023-07-22T04:36:31;9633.31;;;18.68;100.00
54503;BME280;40411;50.090;21.954;2023-07-22T04:38:57;9301.88;;;18.80;100.00
54503;BME280;40411;50.090;21.954;2023-07-22T04:41:23;8970.00;;;18.89;100.00
54503;BME280;40411;50.090;21.954;2023-07-22T04:43:50;8638.59;;;19.02;100.00
54503;BME280;40411;50.090;21.954;2023-07-22T04:46:16;8306.47;;;19.11;100.00
54503;BME280;40411;50.090;21.954;2023-07-22T04:48:42;7975.16;;;19.25;100.00
54503;BME280;40411;50.090;21.954;2023-07-22T04:51:07;8307.53;;;19.16;100.00
54503;BME280;40411;50.090;21.954;2023-07-22T04:53:33;7977.41;;;19.37;100.00
54503;BME280;40411;50.090;21.954;2023-07-22T04:55:59;7644.00;;;19.40;100.00
54503;BME280;40411;50.090;21.954;2023-07-22T04:58:25;7311.97;;;19.51;100.00
54503;BME280;40411;50.090;21.954;2023-07-22T05:00:51;7313.59;;;19.60;100.00
54503;BME280;40411;50.090;21.954;2023-07-22T05:03:17;7646.28;;;19.53;100.00
54503;BME280;40411;50.090;21.954;2023-07-22T05:05:44;7311.25;;;19.47;100.00
54503;BME280;40411;50.090;21.954;2023-07-22T05:08:10;7979.03;;;19.46;100.00
54503;BME280;40411;50.090;21.954;2023-07-22T05:10:39;7647.56;;;19.60;100.00
54503;BME280;40411;50.090;21.954;2023-07-22T05:13:05;7646.38;;;19.53;100.00
54503;BME280;40411;50.090;21.954;2023-07-22T05:15:31;7645.63;;;19.49;100.00
54503;BME280;40411;50.090;21.954;2023-07-22T05:17:57;7313.59;;;19.60;100.00
54503;BME280;40411;50.090;21.954;2023-07-22T05:20:22;7645.81;;;19.50;100.00
54503;BME280;40411;50.090;21.954;2023-07-22T05:22:48;6650.81;;;19.93;100.00
54503;BME280;40411;50.090;21.954;2023-07-22T05:25:14;6650.31;;;19.90;100.00
54503;BME280;40411;50.090;21.954;2023-07-22T05:27:40;6983.97;;;19.86;100.00
54503;BME280;40411;50.090;21.954;2023-07-22T05:30:07;6651.38;;;19.96;100.00
54503;BME280;40411;50.090;21.954;2023-07-22T05:32:33;6651.56;;;19.97;100.00
54503;BME280;40411;50.090;21.954;2023-07-22T05:34:58;5654.25;;;20.32;100.00
54503;BME280;40411;50.090;21.954;2023-07-22T05:37:25;5321.28;;;20.41;100.00
54503;BME280;40411;50.090;21.954;2023-07-22T05:39:53;4989.41;;;20.59;100.00
54503;BME280;40411;50.090;21.954;2023-07-22T05:42:19;5322.03;;;20.46;100.00
54503;BME280;40411;50.090;21.954;2023-07-22T05:44:45;4657.75;;;20.79;100.00
54503;BME280;40411;50.090;21.954;2023-07-22T05:47:11;4991.66;;;20.75;100.00
54503;BME280;40411;50.090;21.954;2023-07-22T05:49:37;5991.25;;;20.49;100.00
54503;BME280;40411;50.090;21.954;2023-07-22T05:52:03;5325.63;;;20.71;100.00
54503;BME280;40411;50.090;21.954;2023-07-22T05:54:29;4993.31;;;20.87;100.00
54503;BME280;40411;50.090;21.954;2023-07-22T05:56:55;4995.56;;;21.03;100.00
54503;BME280;40411;50.090;21.954;2023-07-22T05:59:21;4661.44;;;21.07;100.00
54503;BME280;40411;50.090;21.954;2023-07-22T06:01:47;4329.44;;;21.27;100.00
54503;BME280;40411;50.090;21.954;2023-07-22T06:04:12;4329.88;;;21.30;100.00
54503;BME280;40411;50.090;21.954;2023-07-22T06:06:38;4997.84;;;21.19;100.00
54503;BME280;40411;50.090;21.954;2023-07-22T06:09:04;3998.47;;;21.57;100.00
54503;BME280;40411;50.090;21.954;2023-07-22T06:11:30;3332.50;;;21.89;100.00
54503;BME280;40411;50.090;21.954;2023-07-22T06:13:56;2664.88;;;22.09;100.00
54503;BME280;40411;50.090;21.954;2023-07-22T06:16:22;2333.44;;;22.45;100.00
54503;BME280;40411;50.090;21.954;2023-07-22T06:18:47;3668.53;;;21.98;100.00
54503;BME280;40411;50.090;21.954;2023-07-22T06:21:14;4001.88;;;21.84;100.00
54503;BME280;40411;50.090;21.954;2023-07-22T06:23:41;2668.56;;;22.45;100.00
54503;BME280;40411;50.090;21.954;2023-07-22T06:26:07;3670.47;;;22.14;100.00
54503;BME280;40411;50.090;21.954;2023-07-22T06:28:32;3002.13;;;22.30;100.00
54503;BME280;40411;50.090;21.954;2023-07-22T06:30:58;2334.59;;;22.57;100.00
54503;BME280;40411;50.090;21.954;2023-07-22T06:33:24;2335.94;;;22.71;99.39
54503;BME280;40411;50.090;21.954;2023-07-22T06:35:50;3004.06;;;22.48;98.64
54503;BME280;40411;50.090;21.954;2023-07-22T06:38:16;3337.59;;;22.34;99.68
54503;BME280;40411;50.090;21.954;2023-07-22T06:40:41;2335.13;;;22.63;99.45
54503;BME280;40411;50.090;21.954;2023-07-22T06:43:07;2337.22;;;22.84;98.22
54503;BME280;40411;50.090;21.954;2023-07-22T06:45:33;1670.69;;;23.31;95.28
54503;BME280;40411;50.090;21.954;2023-07-22T06:47:59;2005.75;;;23.26;94.41
54503;BME280;40411;50.090;21.954;2023-07-22T06:50:24;1671.97;;;23.45;92.38
54503;BME280;40411;50.090;21.954;2023-07-22T06:52:50;1675.72;;;23.88;89.11
54503;BME280;40411;50.090;21.954;2023-07-22T06:55:16;1676.09;;;23.92;90.20
54503;BME280;40411;50.090;21.954;2023-07-22T06:57:42;2677.00;;;23.27;92.36
54503;BME280;40411;50.090;21.954;2023-07-22T07:00:09;2678.44;;;23.41;91.76
54503;BME280;40411;50.090;21.954;2023-07-22T07:02:37;2010.03;;;23.72;89.94
54503;BME280;40411;50.090;21.954;2023-07-22T07:05:03;-668.03;;;25.08;85.32
54503;BME280;40411;50.090;21.954;2023-07-22T07:07:29;4.31;;;25.06;84.80
54503;BME280;40411;50.090;21.954;2023-07-22T07:09:55;2015.47;;;24.30;85.30
54503;BME280;40411;50.090;21.954;2023-07-22T07:12:21;1344.13;;;24.39;87.32
54503;BME280;40411;50.090;21.954;2023-07-22T07:14:50;1344.75;;;24.46;85.68
54503;BME280;40411;50.090;21.954;2023-07-22T07:17:16;2347.91;;;23.93;88.17
54503;BME280;40411;50.090;21.954;2023-07-22T07:19:42;3349.34;;;23.37;91.01
54503;BME280;40411;50.090;21.954;2023-07-22T07:22:08;2012.78;;;24.01;88.71
54503;BME280;40411;50.090;21.954;2023-07-22T07:24:34;2010.97;;;23.82;91.05
54503;BME280;40411;50.090;21.954;2023-07-22T07:27:00;2347.88;;;23.93;89.20
54503;BME280;40411;50.090;21.954;2023-07-22T07:29:25;2345.25;;;23.66;91.56
54503;BME280;40411;50.090;21.954;2023-07-22T07:31:51;4015.88;;;22.97;92.46
54503;BME280;40411;50.090;21.954;2023-07-22T07:34:20;5015.44;;;22.46;95.60
54503;BME280;40411;50.090;21.954;2023-07-22T07:36:46;4344.31;;;22.42;97.67
54503;BME280;40411;50.090;21.954;2023-07-22T07:39:12;4678.56;;;22.35;97.51
54503;BME280;40411;50.090;21.954;2023-07-22T07:41:38;4679.31;;;22.40;97.26
54503;BME280;40411;50.090;21.954;2023-07-22T07:44:04;4345.44;;;22.51;96.28
54503;BME280;40411;50.090;21.954;2023-07-22T07:46:29;4011.38;;;22.61;96.54
54503;BME280;40411;50.090;21.954;2023-07-22T07:48:57;3009.66;;;23.00;95.29
54503;BME280;40411;50.090;21.954;2023-07-22T07:51:25;3680.09;;;22.95;93.90
54503;BME280;40411;50.090;21.954;2023-07-22T07:53:54;3347.34;;;23.19;92.27
54503;BME280;40411;50.090;21.954;2023-07-22T07:56:20;4013.41;;;22.78;95.38
54503;BME280;40411;50.090;21.954;2023-07-22T07:58:50;4347.53;;;22.67;95.63
54503;BME280;40411;50.090;21.954;2023-07-22T08:01:19;3009.22;;;22.96;96.06
54503;BME280;40411;50.090;21.954;2023-07-22T08:03:46;1339.34;;;23.81;93.68
54503;BME280;40411;50.090;21.954;2023-07-22T08:06:13;1339.59;;;23.84;92.59
54503;BME280;40411;50.090;21.954;2023-07-22T08:08:39;2009.38;;;23.64;92.03
54503;BME280;40411;50.090;21.954;2023-07-22T08:11:13;1010.41;;;24.68;84.18
54503;BME280;40411;50.090;21.954;2023-07-22T08:13:40;2350.84;;;24.23;85.45
54503;BME280;40411;50.090;21.954;2023-07-22T08:16:07;1348.00;;;24.85;82.13
54503;BME280;40411;50.090;21.954;2023-07-22T08:18:34;4023.69;;;23.60;86.73
54503;BME280;40411;50.090;21.954;2023-07-22T08:21:02;4021.16;;;23.40;89.55
54503;BME280;40411;50.090;21.954;2023-07-22T08:23:29;4687.84;;;23.04;90.49
54503;BME280;40411;50.090;21.954;2023-07-22T08:25:54;5019.44;;;22.74;92.65
54503;BME280;40411;50.090;21.954;2023-07-22T08:28:21;2685.38;;;24.08;83.67
54503;BME280;40411;50.090;21.954;2023-07-22T08:30:49;-326.75;;;25.96;77.38
54503;BME280;40411;50.090;21.954;2023-07-22T08:33:15;1354.47;;;25.63;76.63
54503;BME280;40411;50.090;21.954;2023-07-22T08:35:42;683.00;;;25.89;75.90
54503;BME280;40411;50.090;21.954;2023-07-22T08:38:08;-2006.03;;;27.22;72.71
54503;BME280;40411;50.090;21.954;2023-07-22T08:40:38;-1331.69;;;27.17;73.33
54503;BME280;40411;50.090;21.954;2023-07-22T08:43:07;1694.13;;;25.96;74.43
54503;BME280;40411;50.090;21.954;2023-07-22T08:45:34;3367.66;;;24.97;77.88
54503;BME280;40411;50.090;21.954;2023-07-22T08:48:04;1686.81;;;25.14;82.28
54503;BME280;40411;50.090;21.954;2023-07-22T08:53:14;-1667.78;;;27.48;71.42
54503;BME280;40411;50.090;21.954;2023-07-22T08:55:41;15.19;;;26.79;72.48
54503;BME280;40411;50.090;21.954;2023-07-22T08:58:09;2028.25;;;25.67;76.35
54503;BME280;40411;50.090;21.954;2023-07-22T09:00:35;1355.66;;;25.77;77.81
54503;BME280;40411;50.090;21.954;2023-07-22T09:03:02;3368.31;;;25.03;77.55
54503;BME280;40411;50.090;21.954;2023-07-22T09:05:28;3027.75;;;24.66;81.88
54503;BME280;40411;50.090;21.954;2023-07-22T09:07:56;3701.28;;;24.73;79.26
54503;BME280;40411;50.090;21.954;2023-07-22T09:10:22;1691.09;;;25.62;77.27
54503;BME280;40411;50.090;21.954;2023-07-22T09:12:52;687.16;;;26.45;72.72
54503;BME280;40411;50.090;21.954;2023-07-22T09:15:18;-1667.44;;;27.57;71.43
54503;BME280;40411;50.090;21.954;2023-07-22T09:17:45;1695.09;;;26.07;73.24
54503;BME280;40411;50.090;21.954;2023-07-22T09:20:13;-321.44;;;26.88;73.46
54503;BME280;40411;50.090;21.954;2023-07-22T09:22:44;691.78;;;27.08;68.18
54503;BME280;40411;50.090;21.954;2023-07-22T09:27:41;4042.53;;;25.11;75.62
54503;BME280;40411;50.090;21.954;2023-07-22T09:30:28;3038.56;;;25.65;73.73
54503;BME280;40411;50.090;21.954;2023-07-22T09:32:59;2369.06;;;26.07;71.32
54503;BME280;40411;50.090;21.954;2023-07-22T09:35:44;2374.66;;;26.63;66.93
54503;BME280;40411;50.090;21.954;2023-07-22T09:38:13;-317.28;;;27.59;67.40
54503;BME280;40411;50.090;21.954;2023-07-22T09:40:41;-314.34;;;28.10;63.49
54503;BME280;40411;50.090;21.954;2023-07-22T09:43:10;-3013.69;;;29.54;61.48
54503;BME280;40411;50.090;21.954;2023-07-22T09:48:39;25.59;;;28.42;62.19
54503;BME280;40411;50.090;21.954;2023-07-22T09:51:05;3391.66;;;27.06;63.58
54503;BME280;40411;50.090;21.954;2023-07-22T09:53:31;5065.41;;;26.02;67.47
54503;BME280;40411;50.090;21.954;2023-07-22T09:56:03;5730.53;;;25.40;70.99
54503;BME280;40411;50.090;21.954;2023-07-22T09:58:39;4052.97;;;25.95;69.49
54503;BME280;40411;50.090;21.954;2023-07-22T10:01:07;693.75;;;27.35;68.30
54503;BME280;40411;50.090;21.954;2023-07-22T10:03:36;-314.03;;;28.15;64.57
54503;BME280;40411;50.090;21.954;2023-07-22T10:06:03;26.69;;;28.60;60.64
54503;BME280;40411;50.090;21.954;2023-07-22T10:08:34;-3011.97;;;30.49;57.14
54503;BME280;40411;50.090;21.954;2023-07-22T10:11:00;-4028.34;;;30.82;56.56
54503;BME280;40411;50.090;21.954;2023-07-22T10:13:27;-1657.31;;;30.23;55.06
54503;BME280;40411;50.090;21.954;2023-07-22T10:15:53;3400.31;;;27.80;59.54
54503;BME280;40411;50.090;21.954;2023-07-22T10:18:21;4397.06;;;26.48;67.02
54503;BME280;40411;50.090;21.954;2023-07-22T10:20:47;8748.22;;;24.59;70.90
54503;BME280;40411;50.090;21.954;2023-07-22T10:23:15;6741.13;;;25.37;70.12
54503;BME280;40411;50.090;21.954;2023-07-22T10:25:42;5734.97;;;25.69;70.04
54503;BME280;40411;50.090;21.954;2023-07-22T10:28:08;6408.25;;;25.63;67.27
54503;BME280;40411;50.090;21.954;2023-07-22T10:30:34;8759.41;;;25.15;66.11
54503;BME280;40411;50.090;21.954;2023-07-22T10:33:01;8080.56;;;24.90;68.61
54503;BME280;40411;50.090;21.954;2023-07-22T10:37:56;7757.50;;;25.66;64.06
54503;BME280;40411;50.090;21.954;2023-07-22T10:40:31;8753.09;;;24.83;67.93
54503;BME280;40411;50.090;21.954;2023-07-22T10:43:04;5409.94;;;26.51;62.41
54503;BME280;40411;50.090;21.954;2023-07-22T10:45:33;1373.13;;;27.85;63.12
54503;BME280;40411;50.090;21.954;2023-07-22T10:48:11;366.97;;;28.90;57.68
54503;BME280;40411;50.090;21.954;2023-07-22T10:50:46;3742.00;;;28.11;56.32
54503;BME280;40411;50.090;21.954;2023-07-22T11:01:36;7083.28;;;25.67;65.20
54503;BME280;40411;50.090;21.954;2023-07-22T11:11:57;3061.72;;;27.75;59.65
54503;BME280;40411;50.090;21.954;2023-07-22T11:14:27;2724.59;;;27.83;58.85
54503;BME280;40411;50.090;21.954;2023-07-22T11:16:54;2731.31;;;28.46;55.73
54503;BME280;40411;50.090;21.954;2023-07-22T11:19:23;703.41;;;28.65;60.12
54503;BME280;40411;50.090;21.954;2023-07-22T11:21:51;3073.22;;;28.79;52.82
54503;BME280;40411;50.090;21.954;2023-07-22T11:24:18;2727.34;;;28.09;59.16
54503;BME280;40411;50.090;21.954;2023-07-22T11:26:45;1374.69;;;28.03;64.45
54503;BME280;40411;50.090;21.954;2023-07-22T11:29:12;2050.09;;;27.97;62.26
54503;BME280;40411;50.090;21.954;2023-07-22T11:31:43;2727.34;;;28.09;60.37
54503;BME280;40411;50.090;21.954;2023-07-22T11:34:20;1047.78;;;29.42;53.44
54503;BME280;40411;50.090;21.954;2023-07-22T11:36:49;368.47;;;29.12;58.36
54503;BME280;40411;50.090;21.954;2023-07-22T11:39:20;2732.19;;;28.55;56.29
54503;BME280;40411;50.090;21.954;2023-07-22T11:41:47;5090.00;;;27.75;56.71
54503;BME280;40411;50.090;21.954;2023-07-22T11:44:16;6768.41;;;27.00;59.03
54503;BME280;40411;50.090;21.954;2023-07-22T11:46:56;11126.63;;;25.44;59.95
54503;BME280;40411;50.090;21.954;2023-07-22T11:49:38;11453.38;;;25.00;62.62
54503;BME280;40411;50.090;21.954;2023-07-22T11:52:11;11786.88;;;24.84;62.80
54503;BME280;40411;50.090;21.954;2023-07-22T11:54:42;7095.50;;;26.38;61.21
54503;BME280;40411;50.090;21.954;2023-07-22T11:57:21;7102.06;;;26.76;58.16
54503;BME280;40411;50.090;21.954;2023-07-22T11:59:52;4080.72;;;28.15;55.61
54503;BME280;40411;50.090;21.954;2023-07-22T12:02:26;8458.63;;;27.02;52.62
54503;BME280;40411;50.090;21.954;2023-07-22T12:04:59;10131.28;;;26.21;56.78
54503;BME280;40411;50.090;21.954;2023-07-22T12:07:29;12814.00;;;25.43;56.25
54503;BME280;40411;50.090;21.954;2023-07-22T12:09:58;9791.44;;;26.11;57.76
54503;BME280;40411;50.090;21.954;2023-07-22T12:15:10;11808.25;;;25.71;55.36
54503;BME280;40411;50.090;21.954;2023-07-22T12:17:47;6772.44;;;27.24;57.27
54503;BME280;40411;50.090;21.954;2023-07-22T12:20:14;3069.22;;;28.43;57.65
54503;BME280;40411;50.090;21.954;2023-07-22T12:22:41;5773.00;;;28.19;52.03
54503;BME280;40411;50.090;21.954;2023-07-22T12:25:07;6100.75;;;27.51;55.16
54503;BME280;40411;50.090;21.954;2023-07-22T12:27:33;3071.00;;;28.59;55.95
54503;BME280;40411;50.090;21.954;2023-07-22T12:29:59;5099.13;;;28.39;52.90
54503;BME280;40411;50.090;21.954;2023-07-22T12:32:25;9796.63;;;26.35;55.77
54503;BME280;40411;50.090;21.954;2023-07-22T12:34:51;4411.97;;;27.61;59.76
54503;BME280;40411;50.090;21.954;2023-07-22T12:37:16;5090.88;;;27.81;56.54
54503;BME280;40411;50.090;21.954;2023-07-22T12:39:42;5096.06;;;28.18;53.25
54503;BME280;40411;50.090;21.954;2023-07-22T12:42:08;4759.06;;;28.27;54.59
54503;BME280;40411;50.090;21.954;2023-07-22T12:44:34;7454.94;;;27.60;52.23
54503;BME280;40411;50.090;21.954;2023-07-22T12:47:02;8123.50;;;27.17;53.81
54503;BME280;40411;50.090;21.954;2023-07-22T12:49:28;7115.81;;;27.55;54.24
54503;BME280;40411;50.090;21.954;2023-07-22T12:51:53;6779.34;;;27.65;54.92
54503;BME280;40411;50.090;21.954;2023-07-22T12:54:22;5433.31;;;28.10;53.63
54503;BME280;40411;50.090;21.954;2023-07-22T12:56:47;3749.59;;;28.73;53.92
54503;BME280;40411;50.090;21.954;2023-07-22T12:59:13;6445.47;;;27.92;53.06
54503;BME280;40411;50.090;21.954;2023-07-22T13:01:39;7126.84;;;28.18;48.78
54503;BME280;40411;50.090;21.954;2023-07-22T13:04:07;5435.66;;;28.26;53.57
54503;BME280;40411;50.090;21.954;2023-07-22T13:06:33;9139.69;;;27.26;52.56
54503;BME280;40411;50.090;21.954;2023-07-22T13:08:59;10147.63;;;26.95;52.78
54503;BME280;40411;50.090;21.954;2023-07-22T13:11:24;9140.44;;;27.30;51.49
54503;BME280;40411;50.090;21.954;2023-07-22T13:13:50;8803.72;;;27.37;52.13
54503;BME280;40411;50.090;21.954;2023-07-22T13:16:16;6107.22;;;27.92;54.97
54503;BME280;40411;50.090;21.954;2023-07-22T13:18:42;7462.38;;;28.01;50.72
54503;BME280;40411;50.090;21.954;2023-07-22T13:21:08;8135.69;;;27.82;50.89
54503;BME280;40411;50.090;21.954;2023-07-22T13:23:34;9481.81;;;27.45;50.22